Time;durP1;ratioP1;P1;durP2;ratioP2;P2;SDS_P1;SDS_P2;PMS_P1;PMS_P2;Temp;Humidity;BMP_temperature;BMP_pressure;BME280_temperature;BME280_humidity;BME280_pressure;Samples;Min_cycle;Max_cycle;Signal;HPM_P1;HPM_P2
2022/02/05 00:00:31;;;;;;;1.10;0.30;;;6.60;76.30;;;;;;4973404;28;20030;-66
2022/02/05 00:40:49;;;;;;;0.87;0.67;;;5.90;78.10;;;;;;4972681;28;20034;-67
2022/02/05 00:43:16;;;;;;;0.95;0.60;;;5.90;78.30;;;;;;4975845;28;20292;-66
2022/02/05 00:45:48;;;;;;;0.60;0.60;;;5.90;78.30;;;;;;4973745;28;20027;-66
2022/02/05 00:48:15;;;;;;;1.75;0.55;;;5.90;78.40;;;;;;4975092;28;20039;-66
2022/02/05 00:50:43;;;;;;;0.43;0.43;;;5.90;78.60;;;;;;4973151;28;20038;-67
2022/02/05 00:55:42;;;;;;;1.45;0.90;;;5.90;78.60;;;;;;4972562;28;20070;-66
2022/02/05 00:58:08;;;;;;;0.60;0.40;;;5.90;78.50;;;;;;4973964;28;20489;-66
2022/02/05 01:00:36;;;;;;;1.35;0.60;;;5.90;78.50;;;;;;4972579;28;20038;-66
2022/02/05 01:03:02;;;;;;;1.30;0.60;;;5.90;78.50;;;;;;4973958;28;20405;-66
2022/02/05 01:05:28;;;;;;;0.98;0.60;;;5.90;78.60;;;;;;4974831;28;20058;-67
2022/02/05 01:07:56;;;;;;;0.50;0.50;;;5.90;78.30;;;;;;4974611;28;20073;-65
2022/02/05 01:10:24;;;;;;;0.57;0.50;;;5.80;78.30;;;;;;4976220;28;20136;-66
2022/02/05 01:12:54;;;;;;;0.73;0.52;;;5.80;78.30;;;;;;4971560;28;20068;-66
2022/02/05 01:15:23;;;;;;;0.98;0.73;;;5.80;78.30;;;;;;4973224;28;20145;-68
2022/02/05 01:17:52;;;;;;;2.03;1.60;;;5.80;78.10;;;;;;4973526;28;20066;-68
2022/02/05 01:23:06;;;;;;;1.23;0.70;;;5.80;78.00;;;;;;4973938;28;20465;-66
2022/02/05 01:25:34;;;;;;;1.40;0.93;;;5.80;78.00;;;;;;4972540;28;20450;-66
2022/02/05 01:28:08;;;;;;;4.82;1.77;;;5.80;77.80;;;;;;4974838;28;20039;-67
2022/02/05 01:30:37;;;;;;;3.55;1.60;;;5.70;77.40;;;;;;4975148;28;20379;-67
2022/02/05 01:33:17;;;;;;;5.35;2.20;;;5.70;77.30;;;;;;4973957;28;20031;-65
2022/02/05 01:52:24;;;;;;;1.13;1.00;;;5.60;76.90;;;;;;4973841;28;20116;-66
2022/02/05 01:57:27;;;;;;;5.28;2.40;;;5.50;76.70;;;;;;4973295;28;20492;-66
2022/02/05 02:05:14;;;;;;;1.38;1.10;;;5.40;76.90;;;;;;4974787;28;20038;-66
2022/02/05 02:15:49;;;;;;;1.00;1.00;;;5.40;76.90;;;;;;4977022;28;20061;-67
2022/02/05 02:18:35;;;;;;;1.20;1.10;;;5.30;76.60;;;;;;4981798;28;20038;-66
2022/02/05 02:26:11;;;;;;;1.30;1.10;;;5.40;76.20;;;;;;4977837;28;20038;-66
2022/02/05 02:28:48;;;;;;;1.38;1.27;;;5.30;76.00;;;;;;4977312;28;20038;-66
2022/02/05 02:31:20;;;;;;;0.95;0.95;;;5.30;76.00;;;;;;4976280;28;20435;-66
2022/02/05 02:33:49;;;;;;;1.10;1.00;;;5.30;75.90;;;;;;4976730;28;20030;-66
2022/02/05 02:39:03;;;;;;;2.10;1.08;;;5.30;75.60;;;;;;4976873;28;20731;-65
2022/02/05 02:41:36;;;;;;;1.20;1.10;;;5.30;75.50;;;;;;4979074;28;20272;-66
2022/02/05 02:44:02;;;;;;;1.98;1.10;;;5.30;75.20;;;;;;4977118;28;20034;-68
2022/02/05 02:46:28;;;;;;;1.67;1.30;;;5.20;75.00;;;;;;4978640;28;20034;-67
2022/02/05 02:48:54;;;;;;;1.35;1.20;;;5.20;75.20;;;;;;4975317;28;20533;-68
2022/02/05 02:57:01;;;;;;;2.22;1.30;;;5.10;75.10;;;;;;4977629;28;20074;-68
2022/02/05 02:59:34;;;;;;;2.78;1.33;;;5.10;75.10;;;;;;4979589;28;20543;-66
2022/02/05 03:02:09;;;;;;;1.45;1.35;;;5.00;75.20;;;;;;4979620;28;20133;-66
2022/02/05 03:04:35;;;;;;;1.30;1.20;;;5.00;75.30;;;;;;4978898;28;20038;-66
2022/02/05 03:07:00;;;;;;;1.42;1.20;;;4.90;75.30;;;;;;4980097;28;20049;-67
2022/02/05 03:09:26;;;;;;;1.08;0.98;;;4.90;75.40;;;;;;4978380;28;20056;-66
2022/02/05 03:11:52;;;;;;;3.00;1.38;;;4.90;75.30;;;;;;4979772;28;20125;-66
2022/02/05 03:14:18;;;;;;;1.23;1.13;;;4.90;75.30;;;;;;4978352;28;20038;-67
2022/02/05 03:16:49;;;;;;;2.17;1.30;;;4.90;75.30;;;;;;4977161;28;20049;-66
2022/02/05 03:19:15;;;;;;;1.58;1.30;;;4.80;75.30;;;;;;4978578;28;20543;-65
2022/02/05 03:21:42;;;;;;;1.65;1.38;;;4.80;75.20;;;;;;4980346;28;20121;-67
2022/02/05 03:24:09;;;;;;;1.70;1.30;;;4.80;75.30;;;;;;4993593;28;20031;-67
2022/02/05 03:26:35;;;;;;;2.45;1.45;;;4.80;75.30;;;;;;4978045;28;20836;-67
2022/02/05 03:29:05;;;;;;;2.80;1.48;;;4.70;75.20;;;;;;4976634;28;20027;-66
2022/02/05 03:31:31;;;;;;;2.28;1.38;;;4.70;75.10;;;;;;4977163;28;20105;-66
2022/02/05 03:33:56;;;;;;;1.67;1.38;;;4.70;75.10;;;;;;4979405;28;20046;-66
2022/02/05 03:36:22;;;;;;;1.45;1.20;;;4.70;75.00;;;;;;4978754;28;20038;-66
2022/02/05 03:38:47;;;;;;;1.85;1.33;;;4.70;74.80;;;;;;4978110;28;20117;-67
2022/02/05 03:41:13;;;;;;;2.50;1.40;;;4.60;74.60;;;;;;4978388;28;20081;-67
2022/02/05 03:43:39;;;;;;;2.83;1.25;;;4.60;75.00;;;;;;4977957;28;20450;-66
2022/02/05 03:46:04;;;;;;;1.80;1.42;;;4.60;74.50;;;;;;4977899;28;20038;-64
2022/02/05 03:48:30;;;;;;;2.22;1.65;;;4.60;74.50;;;;;;4977315;28;20085;-66
2022/02/05 03:50:55;;;;;;;2.03;1.52;;;4.50;74.40;;;;;;4977263;28;20078;-67
2022/02/05 03:53:21;;;;;;;2.45;1.42;;;4.50;74.40;;;;;;4974308;28;20121;-66
2022/02/05 03:55:47;;;;;;;2.80;1.73;;;4.50;74.40;;;;;;4973608;28;20408;-66
2022/02/05 03:58:13;;;;;;;1.65;1.42;;;4.40;74.50;;;;;;4975202;28;20031;-67
2022/02/05 04:00:39;;;;;;;2.22;1.50;;;4.40;74.60;;;;;;4972050;28;20118;-66
2022/02/05 04:03:07;;;;;;;4.05;1.65;;;4.40;74.60;;;;;;4974446;28;20034;-66
2022/02/05 04:05:32;;;;;;;1.27;1.17;;;4.40;74.50;;;;;;4974597;28;20129;-66
2022/02/05 04:07:58;;;;;;;1.88;1.50;;;4.40;74.50;;;;;;4974000;28;20170;-68
2022/02/05 04:10:28;;;;;;;1.52;1.42;;;4.40;74.50;;;;;;4973782;28;20069;-68
2022/02/05 04:18:23;;;;;;;1.27;1.17;;;4.40;74.10;;;;;;4974897;28;20045;-67
2022/02/05 04:20:49;;;;;;;1.60;1.20;;;4.30;74.10;;;;;;4973556;28;20038;-68
2022/02/05 04:23:15;;;;;;;1.50;1.40;;;4.30;74.10;;;;;;4975332;28;20039;-67
2022/02/05 04:25:41;;;;;;;1.77;1.38;;;4.20;74.20;;;;;;4978643;28;20038;-67
2022/02/05 04:28:07;;;;;;;3.25;1.30;;;4.20;74.20;;;;;;4977930;28;20548;-68
2022/02/05 04:30:32;;;;;;;2.83;1.40;;;4.20;74.20;;;;;;4977079;28;20118;-67
2022/02/05 04:32:58;;;;;;;2.00;1.50;;;4.20;75.10;;;;;;4978268;28;20066;-66
2022/02/05 04:35:24;;;;;;;1.90;1.63;;;4.20;74.30;;;;;;4977695;28;20119;-67
2022/02/05 04:37:52;;;;;;;1.45;1.35;;;4.10;74.30;;;;;;4977150;28;20045;-67
2022/02/05 04:43:45;;;;;;;2.50;1.30;;;4.10;75.20;;;;;;4973777;28;20042;-67
2022/02/05 04:46:06;;;;;;;2.63;1.38;;;4.10;74.50;;;;;;4968124;28;20113;-67
2022/02/05 04:56:37;;;;;;;1.65;1.50;;;4.00;74.30;;;;;;4974975;28;20058;-67
2022/02/05 05:09:25;;;;;;;1.40;1.30;;;3.80;74.10;;;;;;4975990;28;20066;-66
2022/02/05 05:19:58;;;;;;;6.68;3.45;;;3.70;74.50;;;;;;4974788;28;20038;-68
2022/02/05 05:22:23;;;;;;;4.68;2.83;;;3.60;74.60;;;;;;4974430;28;20038;-66
2022/02/05 05:24:49;;;;;;;9.55;5.75;;;3.60;74.70;;;;;;4973404;28;20039;-67
2022/02/05 05:27:15;;;;;;;8.52;5.13;;;3.60;74.80;;;;;;4971815;28;20470;-67
2022/02/05 05:29:40;;;;;;;8.40;4.78;;;3.50;74.70;;;;;;4973953;28;20035;-67
2022/02/05 05:32:06;;;;;;;4.72;3.40;;;3.50;74.80;;;;;;4973169;28;20042;-68
2022/02/05 05:34:32;;;;;;;2.63;2.00;;;3.50;75.30;;;;;;4973154;28;20048;-68
2022/02/05 05:37:00;;;;;;;2.92;2.17;;;3.50;74.80;;;;;;4973843;28;20473;-67
2022/02/05 05:39:25;;;;;;;2.63;2.33;;;3.50;74.90;;;;;;4973520;28;22268;-67
2022/02/05 05:41:51;;;;;;;3.05;2.38;;;3.40;75.00;;;;;;4977620;28;20034;-68
2022/02/05 05:46:47;;;;;;;2.53;2.20;;;3.40;75.20;;;;;;4976380;28;20224;-68
2022/02/05 05:49:19;;;;;;;2.30;2.10;;;3.40;75.20;;;;;;4977013;28;20034;-68
2022/02/05 05:51:45;;;;;;;2.25;2.00;;;3.40;75.10;;;;;;4977757;28;20026;-66
2022/02/05 05:54:11;;;;;;;3.42;2.42;;;3.30;74.80;;;;;;4975216;28;20117;-68
2022/02/05 05:56:37;;;;;;;3.03;2.40;;;3.30;74.90;;;;;;4976274;28;20700;-67
2022/02/05 05:59:04;;;;;;;2.72;2.53;;;3.30;75.00;;;;;;4976059;28;20062;-66
2022/02/05 06:01:30;;;;;;;3.53;2.40;;;3.30;75.00;;;;;;4975681;28;21287;-67
2022/02/05 06:03:56;;;;;;;2.45;2.25;;;3.20;75.00;;;;;;4976910;28;20138;-67
2022/02/05 06:06:23;;;;;;;3.08;2.50;;;3.20;75.20;;;;;;4976775;28;20603;-67
2022/02/05 06:08:48;;;;;;;2.95;2.50;;;3.20;75.30;;;;;;4976708;28;21715;-68
2022/02/05 06:11:14;;;;;;;3.92;2.30;;;3.20;75.10;;;;;;4977612;28;20517;-66
2022/02/05 06:13:40;;;;;;;2.90;2.38;;;3.20;75.00;;;;;;4977295;28;20122;-66
2022/02/05 06:16:10;;;;;;;5.18;2.28;;;3.10;75.00;;;;;;4975199;28;20046;-68
2022/02/05 06:18:36;;;;;;;3.63;2.20;;;3.10;75.20;;;;;;4976308;28;20124;-67
2022/02/05 06:21:02;;;;;;;3.40;2.10;;;3.00;75.30;;;;;;4977216;28;20032;-68
2022/02/05 06:23:27;;;;;;;3.72;2.17;;;3.10;75.40;;;;;;4977455;28;20023;-65
2022/02/05 06:25:53;;;;;;;3.75;2.33;;;3.00;75.50;;;;;;4977620;28;20097;-67
2022/02/05 06:28:19;;;;;;;3.65;2.20;;;3.00;75.50;;;;;;4976430;28;20117;-68
2022/02/05 06:30:45;;;;;;;3.42;1.98;;;3.00;75.50;;;;;;4976797;28;20034;-67
2022/02/05 06:33:11;;;;;;;6.05;2.17;;;3.00;75.60;;;;;;4978302;28;20052;-67
2022/02/05 06:35:37;;;;;;;3.40;2.25;;;3.00;75.60;;;;;;4976553;28;20038;-67
2022/02/05 06:38:03;;;;;;;4.32;2.38;;;3.00;75.70;;;;;;4977661;28;20042;-69
2022/02/05 06:40:28;;;;;;;3.85;2.00;;;3.00;75.70;;;;;;4975742;28;20790;-68
2022/02/05 06:42:54;;;;;;;2.25;1.90;;;3.00;75.60;;;;;;4976708;28;20105;-66
2022/02/05 06:45:20;;;;;;;2.13;1.65;;;3.00;75.60;;;;;;4976749;28;20045;-68
2022/02/05 06:47:46;;;;;;;2.90;1.80;;;3.00;75.60;;;;;;4975189;28;20061;-68
2022/02/05 06:50:12;;;;;;;3.80;2.08;;;3.00;75.70;;;;;;4974099;28;20413;-68
2022/02/05 06:52:39;;;;;;;3.85;2.38;;;2.90;75.70;;;;;;4976920;28;20054;-68
2022/02/05 06:55:07;;;;;;;3.85;2.50;;;2.90;75.70;;;;;;4975755;28;20043;-67
2022/02/05 06:57:32;;;;;;;3.25;2.10;;;2.90;75.80;;;;;;4976509;28;20108;-67
2022/02/05 06:59:58;;;;;;;6.15;2.15;;;2.90;76.80;;;;;;4975657;28;20059;-67
2022/02/05 07:02:24;;;;;;;2.80;2.25;;;2.90;76.00;;;;;;4976826;28;20037;-67
2022/02/05 07:04:49;;;;;;;4.70;2.63;;;2.80;76.00;;;;;;4974961;28;20045;-66
2022/02/05 07:07:15;;;;;;;4.43;2.47;;;2.80;76.20;;;;;;4975010;28;20065;-67
2022/02/05 07:09:41;;;;;;;3.67;2.15;;;2.80;76.20;;;;;;4976246;28;20035;-68
2022/02/05 07:12:09;;;;;;;4.57;2.38;;;2.80;76.40;;;;;;4975682;28;20042;-66
2022/02/05 07:14:54;;;;;;;3.17;2.30;;;2.70;76.50;;;;;;4975305;28;20049;-67
2022/02/05 07:22:42;;;;;;;3.10;2.33;;;2.80;76.80;;;;;;4975267;28;20046;-67
2022/02/05 07:30:21;;;;;;;5.63;2.58;;;2.80;77.10;;;;;;4977114;28;20034;-68
2022/02/05 07:32:46;;;;;;;4.60;2.60;;;2.80;77.30;;;;;;4976034;28;20038;-68
2022/02/05 07:35:12;;;;;;;3.00;2.20;;;2.80;77.20;;;;;;4975250;28;20086;-67
2022/02/05 07:37:38;;;;;;;3.88;2.40;;;2.90;77.40;;;;;;4975748;28;20157;-67
2022/02/05 07:40:04;;;;;;;3.63;2.20;;;2.90;77.40;;;;;;4974944;28;20023;-66
2022/02/05 07:42:30;;;;;;;3.28;2.17;;;3.00;77.40;;;;;;4975254;28;20035;-67
2022/02/05 07:44:55;;;;;;;5.20;2.22;;;3.00;77.40;;;;;;4975949;28;20027;-66
2022/02/05 07:47:22;;;;;;;5.53;2.30;;;3.00;77.40;;;;;;4974893;28;20034;-67
2022/02/05 07:49:48;;;;;;;4.10;1.98;;;3.00;77.40;;;;;;4976576;28;20082;-66
2022/02/05 07:52:14;;;;;;;2.45;2.13;;;3.10;77.40;;;;;;4987118;28;20067;-66
2022/02/05 07:54:40;;;;;;;4.22;2.28;;;3.10;77.40;;;;;;4975970;28;20031;-67
2022/02/05 07:57:06;;;;;;;5.45;1.95;;;3.10;77.30;;;;;;4976302;28;20045;-67
2022/02/05 07:59:32;;;;;;;4.25;2.00;;;3.20;77.40;;;;;;4974791;28;20038;-67
2022/02/05 08:01:58;;;;;;;4.90;2.50;;;3.20;77.20;;;;;;4971911;28;20046;-66
2022/02/05 08:04:24;;;;;;;5.47;2.67;;;3.30;77.20;;;;;;4991573;28;20038;-68
2022/02/05 08:06:50;;;;;;;3.33;2.25;;;3.40;77.20;;;;;;4979791;28;20098;-66
2022/02/05 08:09:28;;;;;;;4.38;2.40;;;3.40;77.10;;;;;;4978127;28;20042;-66
2022/02/05 08:12:08;;;;;;;19.60;11.02;;;3.40;76.90;;;;;;4981432;28;20050;-66
2022/02/05 08:14:36;;;;;;;10.07;5.80;;;3.50;77.10;;;;;;4992372;28;20088;-67
2022/02/05 08:17:15;;;;;;;7.82;5.03;;;3.50;77.10;;;;;;4977739;28;20031;-68
2022/02/05 08:19:40;;;;;;;5.43;3.10;;;3.50;76.90;;;;;;4977940;28;20519;-67
2022/02/05 08:22:06;;;;;;;8.55;3.00;;;3.60;76.90;;;;;;4968844;28;20054;-66
2022/02/05 08:24:32;;;;;;;3.47;2.13;;;3.60;76.70;;;;;;4977404;28;20035;-66
2022/02/05 08:26:57;;;;;;;12.70;5.93;;;3.70;77.10;;;;;;4974424;28;20046;-67
2022/02/05 08:29:23;;;;;;;5.97;2.78;;;3.70;76.40;;;;;;4972266;28;20037;-67
2022/02/05 08:31:48;;;;;;;3.47;2.30;;;3.70;76.20;;;;;;4991581;28;20101;-67
2022/02/05 08:34:15;;;;;;;4.45;1.90;;;3.70;76.10;;;;;;4975460;28;20081;-67
2022/02/05 08:36:44;;;;;;;6.20;2.90;;;3.80;76.00;;;;;;4976424;28;20080;-67
2022/02/05 08:39:11;;;;;;;5.03;2.80;;;3.80;75.80;;;;;;4974650;28;20422;-68
2022/02/05 08:41:37;;;;;;;2.10;1.80;;;3.80;75.70;;;;;;4974842;28;20403;-67
2022/02/05 08:44:03;;;;;;;4.75;2.47;;;3.80;75.70;;;;;;4979419;28;20027;-67
2022/02/05 08:46:29;;;;;;;5.97;2.30;;;3.80;75.70;;;;;;4979390;28;20058;-67
2022/02/05 08:48:54;;;;;;;5.60;3.22;;;3.80;75.50;;;;;;4976973;28;20521;-66
2022/02/05 08:51:20;;;;;;;4.25;2.22;;;3.80;75.40;;;;;;4976818;28;20027;-67
2022/02/05 08:53:46;;;;;;;6.07;2.15;;;3.90;75.30;;;;;;4977024;28;20038;-68
2022/02/05 08:56:12;;;;;;;5.05;2.33;;;3.90;75.30;;;;;;4977347;28;20031;-67
2022/02/05 08:58:37;;;;;;;5.68;2.80;;;3.90;75.20;;;;;;4978471;28;20095;-66
2022/02/05 09:01:21;;;;;;;5.30;2.90;;;3.90;75.20;;;;;;4975791;28;20366;-68
2022/02/05 09:04:14;;;;;;;7.13;3.30;;;3.90;75.20;;;;;;4976116;28;20054;-67
2022/02/05 09:06:45;;;;;;;7.70;4.03;;;4.00;75.30;;;;;;4979769;28;20043;-67
2022/02/05 09:09:17;;;;;;;4.68;2.47;;;4.00;75.30;;;;;;4979030;28;20065;-68
2022/02/05 09:11:49;;;;;;;6.60;2.80;;;4.10;75.50;;;;;;4978588;28;20068;-68
2022/02/05 09:14:38;;;;;;;6.40;2.70;;;4.10;75.50;;;;;;4980122;28;20034;-68
2022/02/05 09:17:04;;;;;;;7.88;2.35;;;4.10;75.40;;;;;;4983079;28;20042;-67
2022/02/05 09:19:32;;;;;;;3.88;2.95;;;4.20;75.40;;;;;;4980948;28;20034;-67
2022/02/05 09:21:59;;;;;;;7.38;2.38;;;4.20;75.30;;;;;;4982267;28;20039;-67
2022/02/05 09:24:25;;;;;;;4.80;2.95;;;4.30;75.40;;;;;;4983249;28;20041;-67
2022/02/05 09:26:58;;;;;;;3.78;2.42;;;4.30;75.10;;;;;;4984572;28;20042;-66
2022/02/05 09:29:24;;;;;;;4.78;2.33;;;4.40;75.00;;;;;;4982387;28;20034;-67
2022/02/05 09:31:51;;;;;;;6.57;2.80;;;4.40;74.80;;;;;;4982655;28;20100;-67
2022/02/05 09:34:17;;;;;;;9.63;3.38;;;4.50;74.70;;;;;;4982062;28;20039;-66
2022/02/05 09:36:43;;;;;;;4.65;2.67;;;4.50;74.60;;;;;;4980935;28;20030;-66
2022/02/05 09:39:13;;;;;;;4.10;2.42;;;4.50;74.40;;;;;;4982070;28;20034;-67
2022/02/05 09:41:40;;;;;;;3.75;2.67;;;4.60;74.20;;;;;;4978506;28;21692;-66
2022/02/05 09:44:07;;;;;;;5.90;2.38;;;4.70;74.30;;;;;;4982116;28;20046;-67
2022/02/05 09:46:34;;;;;;;5.88;2.33;;;4.70;74.20;;;;;;4981978;28;20053;-66
2022/02/05 09:49:01;;;;;;;4.20;2.00;;;4.80;74.00;;;;;;4981808;28;20069;-66
2022/02/05 09:51:33;;;;;;;4.20;1.63;;;4.90;73.60;;;;;;4979391;28;20034;-66
2022/02/05 09:54:02;;;;;;;2.85;1.70;;;4.90;73.60;;;;;;4996762;28;20039;-67
2022/02/05 09:56:30;;;;;;;3.58;1.80;;;5.00;73.60;;;;;;4981428;28;20030;-66
2022/02/05 09:58:58;;;;;;;4.97;1.80;;;5.10;73.40;;;;;;4982328;28;20043;-66
2022/02/05 10:01:28;;;;;;;3.47;1.58;;;5.10;73.10;;;;;;4978552;28;20073;-66
2022/02/05 10:03:55;;;;;;;3.25;1.38;;;5.20;73.20;;;;;;4979992;28;20030;-67
2022/02/05 10:06:38;;;;;;;3.83;1.70;;;5.30;72.90;;;;;;4980109;28;20034;-66
2022/02/05 10:09:04;;;;;;;3.50;1.20;;;5.40;72.20;;;;;;4981403;28;20034;-66
2022/02/05 10:11:30;;;;;;;3.72;1.10;;;5.40;72.20;;;;;;4984591;28;20140;-66
2022/02/05 10:14:12;;;;;;;4.25;1.35;;;5.50;71.50;;;;;;4981198;28;20062;-67
2022/02/05 10:16:38;;;;;;;4.45;1.10;;;5.60;71.30;;;;;;4978888;28;20051;-66
2022/02/05 10:19:04;;;;;;;3.03;1.27;;;5.60;71.30;;;;;;4980661;28;20050;-67
2022/02/05 10:21:30;;;;;;;3.33;1.20;;;5.70;71.00;;;;;;4981023;28;20053;-67
2022/02/05 10:24:02;;;;;;;2.83;2.28;;;5.80;70.50;;;;;;4980249;28;20030;-67
2022/02/05 10:26:42;;;;;;;4.00;1.65;;;5.90;69.70;;;;;;4978765;28;20616;-67
2022/02/05 10:29:10;;;;;;;3.08;1.63;;;5.90;69.60;;;;;;4977612;28;20121;-66
2022/02/05 10:32:08;;;;;;;3.83;1.65;;;6.00;70.10;;;;;;4976616;28;20054;-66
2022/02/05 10:34:46;;;;;;;8.88;2.30;;;6.00;68.90;;;;;;4978686;28;20046;-65
2022/02/05 10:37:23;;;;;;;3.25;1.40;;;6.10;68.70;;;;;;4980833;28;20130;-66
2022/02/05 10:45:14;;;;;;;3.78;1.38;;;6.20;69.00;;;;;;4980357;28;20092;-66
2022/02/05 10:47:50;;;;;;;7.00;2.65;;;6.20;68.90;;;;;;4980333;28;20049;-67
2022/02/05 10:50:20;;;;;;;4.97;1.55;;;6.30;67.60;;;;;;4979217;28;20109;-66
2022/02/05 10:53:13;;;;;;;5.78;2.00;;;6.30;68.60;;;;;;4975476;28;20405;-65
2022/02/05 10:55:53;;;;;;;5.03;1.63;;;6.30;67.90;;;;;;4973999;28;20058;-68
2022/02/05 10:58:41;;;;;;;6.25;1.50;;;6.40;69.10;;;;;;4979286;28;20057;-66
2022/02/05 11:06:57;;;;;;;5.75;1.80;;;6.60;67.20;;;;;;4977761;28;19968;-67
2022/02/05 11:09:24;;;;;;;10.55;4.93;;;6.60;68.00;;;;;;4980745;28;20444;-68
2022/02/05 11:20:15;;;;;;;8.80;2.03;;;6.60;67.50;;;;;;4968767;28;20553;-66
2022/02/05 11:22:47;;;;;;;6.47;2.92;;;6.70;67.60;;;;;;4977056;28;20069;-67
2022/02/05 11:25:14;;;;;;;4.30;1.48;;;6.70;67.40;;;;;;4976464;28;20085;-66
2022/02/05 11:27:48;;;;;;;3.88;1.30;;;6.80;65.70;;;;;;4974497;28;20125;-66
2022/02/05 11:30:42;;;;;;;4.43;1.20;;;6.80;65.10;;;;;;4978825;28;20433;-66
2022/02/05 11:33:35;;;;;;;4.68;1.92;;;6.80;63.40;;;;;;4975415;28;20039;-66
2022/02/05 11:38:44;;;;;;;4.45;1.48;;;6.80;65.70;;;;;;4975927;28;20124;-66
2022/02/05 11:41:35;;;;;;;3.70;1.40;;;6.80;66.60;;;;;;4973654;28;20058;-67
2022/02/05 11:44:13;;;;;;;4.35;1.27;;;6.90;65.30;;;;;;4970733;28;20113;-66
2022/02/05 11:46:39;;;;;;;3.85;1.27;;;6.90;65.70;;;;;;4976048;28;20034;-67
2022/02/05 11:49:06;;;;;;;6.05;1.05;;;7.00;67.40;;;;;;4977166;28;20069;-67
2022/02/05 11:51:46;;;;;;;4.50;1.25;;;7.00;66.40;;;;;;4977867;28;20060;-65
2022/02/05 11:54:17;;;;;;;6.90;1.20;;;7.10;65.40;;;;;;4978471;28;20286;-68
2022/02/05 11:57:07;;;;;;;3.72;1.05;;;7.10;65.90;;;;;;4975022;28;20529;-67
2022/02/05 11:59:56;;;;;;;3.22;1.00;;;7.10;64.90;;;;;;4976470;28;20042;-67
2022/02/05 12:02:22;;;;;;;1.75;0.90;;;7.20;64.10;;;;;;4977097;28;20037;-68
2022/02/05 12:05:15;;;;;;;4.50;1.40;;;7.20;64.40;;;;;;4974769;28;20030;-67
2022/02/05 12:07:59;;;;;;;3.17;1.23;;;7.20;63.80;;;;;;4976657;28;20039;-68
2022/02/05 12:10:35;;;;;;;7.47;1.45;;;7.30;62.90;;;;;;4977332;28;20034;-68
2022/02/05 12:13:34;;;;;;;1.80;0.98;;;7.30;64.40;;;;;;4974994;28;20596;-68
2022/02/05 12:16:00;;;;;;;3.75;1.30;;;7.30;63.70;;;;;;4975300;28;20085;-67
2022/02/05 12:18:29;;;;;;;4.10;1.10;;;7.30;65.50;;;;;;4973681;28;20461;-67
2022/02/05 12:26:31;;;;;;;5.32;1.33;;;7.50;65.20;;;;;;4975758;28;20046;-67
2022/02/05 12:29:02;;;;;;;3.00;1.05;;;7.60;63.90;;;;;;4974819;28;20035;-65
2022/02/05 12:31:34;;;;;;;5.53;1.48;;;7.60;65.00;;;;;;4976187;28;20035;-67
2022/02/05 12:34:07;;;;;;;5.15;2.13;;;7.60;64.80;;;;;;4978537;28;20210;-66
2022/02/05 12:36:40;;;;;;;4.13;1.17;;;7.70;64.00;;;;;;4978465;28;20035;-68
2022/02/05 12:39:10;;;;;;;5.10;2.08;;;7.80;63.80;;;;;;4979531;28;20119;-66
2022/02/05 12:41:37;;;;;;;8.25;2.70;;;7.80;63.90;;;;;;4977838;28;20034;-68
2022/02/05 12:44:07;;;;;;;2.95;1.10;;;7.90;63.20;;;;;;4977531;28;20045;-66
2022/02/05 12:46:43;;;;;;;4.15;1.50;;;7.90;61.90;;;;;;4977132;28;20030;-66
2022/02/05 12:49:17;;;;;;;3.47;1.63;;;7.90;62.20;;;;;;4980416;28;20041;-66
2022/02/05 12:51:44;;;;;;;3.90;1.63;;;7.90;63.00;;;;;;4979148;28;20104;-68
2022/02/05 12:54:15;;;;;;;3.00;1.60;;;7.90;63.00;;;;;;4978671;28;20034;-67
2022/02/05 12:56:43;;;;;;;2.58;1.15;;;8.00;63.10;;;;;;4975490;28;20038;-69
2022/02/05 12:59:14;;;;;;;2.50;1.25;;;7.90;61.30;;;;;;4976893;28;20118;-67
2022/02/05 13:02:05;;;;;;;4.13;1.10;;;8.00;62.30;;;;;;4976250;28;20139;-67
2022/02/05 13:04:33;;;;;;;2.28;1.45;;;8.00;61.00;;;;;;4976317;28;20108;-68
2022/02/05 13:07:12;;;;;;;2.72;2.25;;;8.00;61.70;;;;;;4976795;28;20398;-68
2022/02/05 13:09:56;;;;;;;2.60;1.20;;;8.00;60.80;;;;;;4976786;28;20037;-67
2022/02/05 13:12:34;;;;;;;2.75;1.40;;;8.00;61.30;;;;;;4979632;28;20030;-67
2022/02/05 13:15:17;;;;;;;5.07;1.52;;;8.00;60.70;;;;;;4977024;28;20046;-69
2022/02/05 13:29:17;;;;;;;2.30;1.10;;;8.00;61.30;;;;;;4974713;28;20508;-68
2022/02/05 13:34:25;;;;;;;3.50;1.50;;;7.90;59.90;;;;;;4975928;28;20046;-68
2022/02/05 13:37:17;;;;;;;2.85;1.17;;;7.90;61.70;;;;;;4975788;28;20035;-67
2022/02/05 13:42:24;;;;;;;4.10;1.52;;;7.90;59.10;;;;;;4977972;28;20540;-67
2022/02/05 13:47:52;;;;;;;6.15;2.25;;;7.90;59.30;;;;;;4975868;28;20046;-66
2022/02/05 13:50:28;;;;;;;3.58;1.60;;;7.90;59.70;;;;;;4977312;28;20585;-68
2022/02/05 13:53:05;;;;;;;3.40;2.08;;;7.90;59.80;;;;;;4976925;28;20039;-67
2022/02/05 13:55:35;;;;;;;3.40;1.70;;;7.90;59.60;;;;;;4978682;28;20042;-66
2022/02/05 13:58:03;;;;;;;5.60;2.65;;;8.00;59.20;;;;;;4980732;28;20539;-67
2022/02/05 14:00:53;;;;;;;4.10;1.85;;;8.00;60.00;;;;;;4978222;28;20031;-67
2022/02/05 14:03:28;;;;;;;4.90;2.22;;;8.00;58.80;;;;;;4980765;28;21286;-68
2022/02/05 14:06:07;;;;;;;4.45;2.00;;;8.00;59.40;;;;;;4981647;28;20037;-68
2022/02/05 14:08:57;;;;;;;4.00;1.50;;;8.10;59.40;;;;;;4980500;28;20035;-67
2022/02/05 14:11:28;;;;;;;4.38;1.80;;;8.20;59.50;;;;;;4981424;28;20043;-68
2022/02/05 14:13:58;;;;;;;2.35;0.70;;;8.10;59.70;;;;;;4981567;28;20034;-68
2022/02/05 14:16:38;;;;;;;1.92;1.05;;;8.20;58.80;;;;;;4980797;28;20035;-67
2022/02/05 14:19:05;;;;;;;2.70;1.20;;;8.20;58.40;;;;;;4980975;28;20121;-67
2022/02/05 14:21:34;;;;;;;2.10;0.75;;;8.20;59.90;;;;;;4981429;28;20778;-68
2022/02/05 14:24:01;;;;;;;1.50;0.68;;;8.30;59.20;;;;;;4982709;28;20042;-67
2022/02/05 14:26:38;;;;;;;2.40;1.05;;;8.30;58.60;;;;;;4982670;28;20471;-67
2022/02/05 14:29:06;;;;;;;1.67;1.23;;;8.30;58.60;;;;;;4980564;28;20386;-68
2022/02/05 14:31:45;;;;;;;3.15;1.25;;;8.30;59.00;;;;;;4993209;28;20046;-68
2022/02/05 14:42:13;;;;;;;1.58;0.82;;;8.40;58.40;;;;;;4980035;28;20476;-67
2022/02/05 14:44:39;;;;;;;6.80;4.10;;;8.40;57.50;;;;;;4980342;28;20042;-68
2022/02/05 14:47:06;;;;;;;3.08;1.95;;;8.40;58.70;;;;;;4979146;28;20042;-67
2022/02/05 14:49:32;;;;;;;9.93;5.38;;;8.40;58.70;;;;;;4981048;28;20030;-68
2022/02/05 14:52:01;;;;;;;6.25;3.33;;;8.40;58.60;;;;;;4980743;28;20062;-68
2022/02/05 14:54:28;;;;;;;5.10;2.70;;;8.40;58.60;;;;;;4977022;28;20034;-68
2022/02/05 14:56:54;;;;;;;4.38;2.10;;;8.40;58.90;;;;;;4980182;28;20046;-68
2022/02/05 14:59:20;;;;;;;4.32;2.90;;;8.40;58.90;;;;;;4980251;28;20065;-67
2022/02/05 15:01:46;;;;;;;9.40;3.28;;;8.40;59.00;;;;;;4980436;28;20541;-67
2022/02/05 15:04:12;;;;;;;3.67;2.15;;;8.50;59.00;;;;;;4980746;28;20031;-68
2022/02/05 15:06:38;;;;;;;7.85;4.78;;;8.40;58.60;;;;;;4979656;28;20413;-69
2022/02/05 15:09:07;;;;;;;4.43;2.92;;;8.50;58.00;;;;;;4979702;28;20054;-67
2022/02/05 15:11:33;;;;;;;1.30;1.17;;;8.40;58.40;;;;;;4981450;28;20042;-67
2022/02/05 15:14:01;;;;;;;3.28;0.90;;;8.40;58.30;;;;;;4980261;28;20349;-68
2022/02/05 15:16:30;;;;;;;2.70;0.90;;;8.40;57.80;;;;;;4978629;28;20050;-67
2022/02/05 15:18:57;;;;;;;4.30;2.00;;;8.40;57.30;;;;;;4995293;28;20041;-68
2022/02/05 15:21:26;;;;;;;4.85;3.30;;;8.50;58.20;;;;;;4979833;28;20117;-68
2022/02/05 15:23:54;;;;;;;2.17;1.98;;;8.40;58.60;;;;;;4980121;28;20034;-67
2022/02/05 15:26:20;;;;;;;4.53;2.72;;;8.40;58.00;;;;;;4980030;28;20042;-68
2022/02/05 15:28:47;;;;;;;2.15;1.70;;;8.40;58.20;;;;;;4978930;28;20308;-69
2022/02/05 15:31:14;;;;;;;1.38;0.75;;;8.40;58.10;;;;;;4980191;28;20177;-68
2022/02/05 15:33:44;;;;;;;1.27;1.08;;;8.40;58.30;;;;;;4977628;28;20045;-68
2022/02/05 15:36:13;;;;;;;3.00;1.40;;;8.30;58.20;;;;;;4980705;28;20034;-68
2022/02/05 15:38:49;;;;;;;3.70;1.90;;;8.30;58.10;;;;;;4978731;28;20117;-68
2022/02/05 15:43:58;;;;;;;6.25;2.00;;;8.30;58.10;;;;;;4980326;28;20115;-67
2022/02/05 15:46:24;;;;;;;4.47;2.40;;;8.20;58.10;;;;;;4979470;28;20115;-67
2022/02/05 15:48:51;;;;;;;5.68;2.13;;;8.20;58.10;;;;;;4979818;28;20035;-68
2022/02/05 15:51:18;;;;;;;3.33;1.05;;;8.20;58.90;;;;;;4981548;28;20496;-67
2022/02/05 15:53:54;;;;;;;3.30;2.95;;;8.10;58.20;;;;;;4980041;28;20539;-67
2022/02/05 15:59:07;;;;;;;14.25;10.18;;;8.10;58.40;;;;;;4978239;28;20106;-67
2022/02/05 16:01:32;;;;;;;6.45;4.57;;;8.10;58.50;;;;;;4992424;28;20034;-67
2022/02/05 16:03:58;;;;;;;4.38;2.15;;;8.00;58.40;;;;;;4977825;28;20027;-66
2022/02/05 16:06:24;;;;;;;1.92;1.42;;;8.00;58.50;;;;;;4978689;28;20041;-68
2022/02/05 16:08:49;;;;;;;2.58;1.58;;;8.00;58.50;;;;;;4976391;28;20277;-67
2022/02/05 16:11:17;;;;;;;3.15;1.50;;;7.90;58.40;;;;;;4976018;28;20046;-68
2022/02/05 16:13:47;;;;;;;3.97;1.98;;;7.90;58.30;;;;;;4977141;28;20031;-68
2022/02/05 16:16:13;;;;;;;3.58;1.90;;;7.90;58.20;;;;;;4978842;28;20039;-69
2022/02/05 16:18:39;;;;;;;1.98;1.70;;;7.80;58.50;;;;;;4978027;28;20034;-68
2022/02/05 16:21:06;;;;;;;2.95;1.23;;;7.80;58.50;;;;;;4979262;28;20401;-68
2022/02/05 16:23:31;;;;;;;2.72;1.30;;;7.80;58.60;;;;;;4992830;28;20493;-68
2022/02/05 16:25:57;;;;;;;2.25;1.35;;;7.70;58.70;;;;;;4979425;28;20059;-68
2022/02/05 16:28:24;;;;;;;3.53;1.60;;;7.70;58.60;;;;;;4978746;28;20061;-66